Etusivu
METAR-TAF:

METAR-TAF

Lentoasemat :

Seyresse

Dax, Ranska

Leveyspiiri: 43-41N, Pituuspiiri: 001-04W, korkeus merenpinnasta: 32 m

Tämänhetkinen sää

Tämä raportti tehtiin 1 tunti ja 33 minuuttia sitten, kello 14.00 UTC
Tuuli 3 kn eri suunnista
Lämpötila 17°C
Kosteus 34%
Ilmanpaine 1028 hPa
Näkyvyys 10 km tai enemmän
ei pilviä alle 1500 m:ssä eikä cumulonimbus-pilviä

METAR: LFBY 211400Z VRB03KT CAVOK 17/01 Q1028

Aika: 16:33 (15:33 UTC)

Sääennuste

Tämä raportti tehtiin 7 tuntia ja 33 minuuttia sitten, kello 08.00 UTC
Ennuste voimassa 21. päivästä klo 09 UTC - 21. päivään klo 18 UTC
Tuuli 2 kn eri suunnista
Näkyvyys 10 km tai enemmän
ei pilviä alle 1500 m:ssä eikä cumulonimbus-pilviä

TAF: LFBY 210800Z 2109/2118 VRB02KT CAVOK

Säähavainnot ja -ennusteet yli 4000 lentoasemalta (METAR- ja TAF-raportit).

Käytössä olevat sääasemat on merkitty karttaan keltaisilla ja punaisilla pisteillä.

Aseta hiiri pisteen päälle nähdäksesi sääaseman nimen.

Klikkaa sitten nähdäksesi säähavainnot ja -ennusteet.

Kartan vaihtaminen: klikkaa mustalla rastilla varustettuja vihreitä pisteitä, niin voit zoomata sisään; viivalla varustettua vihreää pistettä, niin voit zoomata ulos tai vihreitä nuolia, niin pääset viereisille kartoille.


METAR-TAF: